createdAt,value
2019-05-11T00:02:08.746Z,67.70
2019-05-11T00:04:38.222Z,67.52
2019-05-11T00:07:07.799Z,67.63
2019-05-11T00:09:37.351Z,66.97
2019-05-11T00:12:07.524Z,67.46
2019-05-11T00:14:37.553Z,67.38
2019-05-11T00:17:07.012Z,67.14
2019-05-11T00:19:36.537Z,67.49
2019-05-11T00:22:06.045Z,67.20
2019-05-11T00:24:35.526Z,67.06
2019-05-11T00:27:05.163Z,66.82
2019-05-11T00:29:34.659Z,66.81
2019-05-11T00:32:04.146Z,66.56
2019-05-11T00:34:33.642Z,66.96
2019-05-11T00:37:03.139Z,67.46
2019-05-11T00:39:32.605Z,67.45
2019-05-11T00:42:02.108Z,67.10
2019-05-11T00:44:31.593Z,67.23
2019-05-11T00:47:01.118Z,67.04
2019-05-11T00:49:30.582Z,66.98
2019-05-11T00:52:00.076Z,67.22
2019-05-11T00:54:29.594Z,67.74
2019-05-11T00:56:59.152Z,67.96
2019-05-11T00:59:28.644Z,68.03
2019-05-11T01:01:58.124Z,68.09
2019-05-11T01:04:27.632Z,68.26
2019-05-11T01:06:57.095Z,68.14
2019-05-11T01:09:26.625Z,68.11
2019-05-11T01:11:56.109Z,68.20
2019-05-11T01:14:25.598Z,68.02
2019-05-11T01:16:55.203Z,68.13
2019-05-11T01:19:24.738Z,67.63
2019-05-11T01:21:54.300Z,67.53
2019-05-11T01:24:23.757Z,68.05
2019-05-11T01:26:53.230Z,67.85
2019-05-11T01:29:22.713Z,67.87
2019-05-11T01:31:52.170Z,67.98
2019-05-11T01:34:21.802Z,67.76
2019-05-11T01:36:51.301Z,68.07
2019-05-11T01:39:20.829Z,67.78
2019-05-11T01:41:50.387Z,67.79
2019-05-11T01:44:19.848Z,67.72
2019-05-11T01:46:49.395Z,67.62
2019-05-11T01:49:19.027Z,67.79
2019-05-11T01:51:48.516Z,67.35
2019-05-11T01:54:18.093Z,67.32
2019-05-11T01:56:47.623Z,67.15
2019-05-11T01:59:17.105Z,67.00
2019-05-11T02:01:46.574Z,67.05
2019-05-11T02:04:16.087Z,67.17
2019-05-11T02:06:45.549Z,67.20
2019-05-11T02:09:15.023Z,67.03
2019-05-11T02:11:44.605Z,67.35
2019-05-11T02:14:14.065Z,67.55
2019-05-11T02:16:43.552Z,67.61
2019-05-11T02:19:32.416Z,67.78
2019-05-11T02:22:01.886Z,68.05
2019-05-11T02:24:31.341Z,68.00
2019-05-11T02:27:00.879Z,68.14
2019-05-11T02:29:30.335Z,68.27
2019-05-11T02:31:59.904Z,68.44
2019-05-11T02:34:29.406Z,68.49
2019-05-11T02:36:58.875Z,68.58
2019-05-11T02:39:28.337Z,68.70
2019-05-11T02:41:57.830Z,68.81
2019-05-11T02:44:27.323Z,68.80
2019-05-11T02:46:56.821Z,68.86
2019-05-11T02:49:28.098Z,68.87
2019-05-11T02:51:58.306Z,68.92
2019-05-11T02:54:29.043Z,69.01
2019-05-11T02:56:58.535Z,69.08
2019-05-11T02:59:29.919Z,69.00
2019-05-11T03:01:59.257Z,69.08
2019-05-11T03:04:28.710Z,69.06
2019-05-11T03:06:58.211Z,69.28
2019-05-11T03:09:27.676Z,69.23
2019-05-11T03:11:57.244Z,69.29
2019-05-11T03:14:26.712Z,69.28
2019-05-11T03:17:09.956Z,69.50
2019-05-11T03:19:39.627Z,69.67
2019-05-11T03:22:09.090Z,69.63
2019-05-11T03:24:38.584Z,69.75
2019-05-11T03:27:08.070Z,69.89
2019-05-11T03:29:37.559Z,70.00
2019-05-11T03:32:07.124Z,70.14
2019-05-11T03:34:36.584Z,70.10
2019-05-11T03:37:06.084Z,70.14
2019-05-11T03:39:35.569Z,70.11
2019-05-11T03:42:14.687Z,69.99
2019-05-11T03:44:36.517Z,69.96
2019-05-11T03:47:06.024Z,70.06
2019-05-11T03:49:35.567Z,70.07
2019-05-11T03:52:05.191Z,69.97
2019-05-11T03:54:34.660Z,70.13
2019-05-11T03:57:04.146Z,69.95
2019-05-11T03:59:33.643Z,69.63
2019-05-11T04:02:04.748Z,69.67
2019-05-11T04:04:34.247Z,69.60
2019-05-11T04:07:03.748Z,69.55
2019-05-11T04:09:33.215Z,69.68
2019-05-11T04:12:02.693Z,69.69
2019-05-11T04:14:32.179Z,69.75
2019-05-11T04:17:01.720Z,69.82
2019-05-11T04:19:31.196Z,69.81
2019-05-11T04:22:00.686Z,69.76
2019-05-11T04:24:30.146Z,69.77
2019-05-11T04:26:59.641Z,69.71
2019-05-11T04:29:29.106Z,69.66
2019-05-11T04:31:58.631Z,69.53
2019-05-11T04:34:28.098Z,69.43
2019-05-11T04:36:57.607Z,69.32
2019-05-11T04:39:27.094Z,69.29
2019-05-11T04:41:56.598Z,69.32
2019-05-11T04:44:26.055Z,69.36
2019-05-11T04:46:55.544Z,69.50
2019-05-11T04:49:25.067Z,69.42
2019-05-11T04:51:54.563Z,69.48
2019-05-11T04:54:24.202Z,69.55
2019-05-11T04:56:53.768Z,69.62
2019-05-11T04:59:23.262Z,69.42
2019-05-11T05:01:52.739Z,69.37
2019-05-11T05:04:22.241Z,68.88
2019-05-11T05:06:59.528Z,68.97
2019-05-11T05:09:23.131Z,68.92
2019-05-11T05:11:52.660Z,68.95
2019-05-11T05:14:22.156Z,68.79
2019-05-11T05:16:51.646Z,68.79
2019-05-11T05:19:21.111Z,68.62
2019-05-11T05:21:50.614Z,68.78
2019-05-11T05:24:20.116Z,68.89
2019-05-11T05:26:49.593Z,68.97
2019-05-11T05:29:19.083Z,68.60
2019-05-11T05:31:48.592Z,68.46
2019-05-11T05:34:18.078Z,68.53
2019-05-11T05:36:47.545Z,68.73
2019-05-11T05:39:17.050Z,68.54
2019-05-11T05:41:56.510Z,68.63
2019-05-11T05:44:17.751Z,68.54
2019-05-11T05:46:47.244Z,68.81
2019-05-11T05:49:16.742Z,68.66
2019-05-11T05:51:46.245Z,68.29
2019-05-11T05:54:15.718Z,68.35
2019-05-11T05:57:04.616Z,68.37
2019-05-11T05:59:34.072Z,68.41
2019-05-11T06:02:03.645Z,68.56
2019-05-11T06:04:33.096Z,68.68
2019-05-11T06:07:02.608Z,68.72
2019-05-11T06:09:32.088Z,68.60
2019-05-11T06:12:01.567Z,68.68
2019-05-11T06:14:31.122Z,68.63
2019-05-11T06:17:00.589Z,68.59
2019-05-11T06:19:30.080Z,68.92
2019-05-11T06:21:59.589Z,68.69
2019-05-11T06:24:29.070Z,68.55
2019-05-11T06:26:58.545Z,68.40
2019-05-11T06:29:28.032Z,68.28
2019-05-11T06:31:57.521Z,68.47
2019-05-11T06:34:27.020Z,68.63
2019-05-11T06:36:56.481Z,68.42
2019-05-11T06:39:25.968Z,68.13
2019-05-11T06:41:55.471Z,67.89
2019-05-11T06:44:24.967Z,67.84
2019-05-11T06:46:54.444Z,67.93
2019-05-11T06:49:23.929Z,67.62
2019-05-11T06:51:53.430Z,67.58
2019-05-11T06:54:22.892Z,68.31
2019-05-11T06:56:52.385Z,68.09
2019-05-11T06:59:21.853Z,67.48
2019-05-11T07:01:51.394Z,67.59
2019-05-11T07:04:20.876Z,67.91
2019-05-11T07:06:50.378Z,67.37
2019-05-11T07:09:39.282Z,66.94
2019-05-11T07:12:08.859Z,66.81
2019-05-11T07:14:38.514Z,66.93
2019-05-11T07:17:07.979Z,66.80
2019-05-11T07:19:37.482Z,67.12
2019-05-11T07:22:07.108Z,67.46
2019-05-11T07:24:36.802Z,67.91
2019-05-11T07:27:06.315Z,67.93
2019-05-11T07:29:35.895Z,67.90
2019-05-11T07:32:15.703Z,68.36
2019-05-11T07:34:38.393Z,68.52
2019-05-11T07:37:08.330Z,68.28
2019-05-11T07:39:38.434Z,67.80
2019-05-11T07:42:08.031Z,67.19
2019-05-11T07:44:41.056Z,67.42
2019-05-11T07:47:08.795Z,66.16
2019-05-11T07:49:38.452Z,66.35
2019-05-11T07:52:08.059Z,66.55
2019-05-11T07:54:38.521Z,66.80
2019-05-11T07:57:08.247Z,66.78
2019-05-11T07:59:38.283Z,66.75
2019-05-11T08:02:08.853Z,67.10
2019-05-11T08:04:38.572Z,66.62
2019-05-11T08:07:08.137Z,66.48
2019-05-11T08:09:38.164Z,66.15
2019-05-11T08:12:08.942Z,66.39
2019-05-11T08:14:55.875Z,66.38
2019-05-11T08:17:09.841Z,65.88
2019-05-11T08:19:58.783Z,67.18
2019-05-11T08:22:29.754Z,67.17
2019-05-11T08:24:59.287Z,67.34
2019-05-11T08:27:28.757Z,67.64
2019-05-11T08:29:58.255Z,67.48
2019-05-11T08:32:28.695Z,67.58
2019-05-11T08:34:58.424Z,67.19
2019-05-11T08:37:28.494Z,67.54
2019-05-11T08:39:58.640Z,68.14
2019-05-11T08:42:29.014Z,67.90
2019-05-11T08:45:15.325Z,66.84
2019-05-11T08:47:29.867Z,66.21
2019-05-11T08:49:59.418Z,65.88
2019-05-11T08:52:28.990Z,66.22
2019-05-11T08:54:58.487Z,65.94
2019-05-11T08:57:28.659Z,66.16
2019-05-11T08:59:58.230Z,65.99
2019-05-11T09:02:27.944Z,65.80
2019-05-11T09:04:58.884Z,65.77
2019-05-11T09:07:28.588Z,66.17
2019-05-11T09:09:58.661Z,67.01
2019-05-11T09:12:28.953Z,66.92
2019-05-11T09:14:58.621Z,66.39
2019-05-11T09:17:28.942Z,65.45
2019-05-11T09:19:58.598Z,65.26
2019-05-11T09:22:28.512Z,64.04
2019-05-11T09:24:58.399Z,63.67
2019-05-11T09:27:28.616Z,64.28
2019-05-11T09:29:59.024Z,63.16
2019-05-11T09:32:28.761Z,64.14
2019-05-11T09:34:58.233Z,63.53
2019-05-11T09:37:27.937Z,64.00
2019-05-11T09:39:58.393Z,63.27
2019-05-11T09:42:28.688Z,62.77
2019-05-11T09:44:58.310Z,63.33
2019-05-11T09:47:28.088Z,61.79
2019-05-11T09:49:58.362Z,61.29
2019-05-11T09:52:32.361Z,61.55
2019-05-11T09:55:01.006Z,61.07
2019-05-11T09:57:30.522Z,60.27
2019-05-11T10:00:00.104Z,61.50
2019-05-11T10:02:29.575Z,60.86
2019-05-11T10:04:59.079Z,61.60
2019-05-11T10:07:32.136Z,61.79
2019-05-11T10:09:59.825Z,61.62
2019-05-11T10:12:29.329Z,59.18
2019-05-11T10:14:59.235Z,59.15
2019-05-11T10:17:28.945Z,59.43
2019-05-11T10:19:59.715Z,59.48
2019-05-11T10:22:29.227Z,60.08
2019-05-11T10:24:58.704Z,58.87
2019-05-11T10:27:28.296Z,58.95
2019-05-11T10:29:58.922Z,58.48
2019-05-11T10:32:28.846Z,57.74
2019-05-11T10:35:00.047Z,58.24
2019-05-11T10:37:29.648Z,57.13
2019-05-11T10:39:59.137Z,57.13
2019-05-11T10:42:28.708Z,56.91
2019-05-11T10:44:58.402Z,57.92
2019-05-11T10:47:28.044Z,56.19
2019-05-11T10:49:57.999Z,56.67
2019-05-11T10:52:28.534Z,58.35
2019-05-11T10:54:58.710Z,56.37
2019-05-11T10:57:28.606Z,55.75
2019-05-11T10:59:58.186Z,57.92
2019-05-11T11:02:28.084Z,57.16
2019-05-11T11:04:58.847Z,57.17
2019-05-11T11:07:29.021Z,56.03
2019-05-11T11:09:58.646Z,57.90
2019-05-11T11:12:28.216Z,54.73
2019-05-11T11:14:58.747Z,56.35
2019-05-11T11:17:28.840Z,56.66
2019-05-11T11:19:58.445Z,57.09
2019-05-11T11:22:39.123Z,57.13
2019-05-11T11:24:59.491Z,57.55
2019-05-11T11:27:29.280Z,56.12
2019-05-11T11:29:58.926Z,55.51
2019-05-11T11:32:28.391Z,54.11
2019-05-11T11:34:57.961Z,55.12
2019-05-11T11:37:28.071Z,55.13
2019-05-11T11:39:58.212Z,55.81
2019-05-11T11:42:28.344Z,53.96
2019-05-11T11:44:58.793Z,55.90
2019-05-11T11:47:28.594Z,53.52
2019-05-11T11:49:58.501Z,53.47
2019-05-11T11:52:28.227Z,54.35
2019-05-11T11:54:58.646Z,53.55
2019-05-11T11:57:28.531Z,54.78
2019-05-11T11:59:58.847Z,55.81
2019-05-11T12:02:28.407Z,53.30
2019-05-11T12:04:58.337Z,51.04
2019-05-11T12:07:28.477Z,51.82
2019-05-11T12:09:58.886Z,52.89
2019-05-11T12:12:28.523Z,52.66
2019-05-11T12:14:58.587Z,51.18
2019-05-11T12:17:28.670Z,51.82
2019-05-11T12:19:58.704Z,51.31
2019-05-11T12:22:28.296Z,50.60
2019-05-11T12:24:58.885Z,50.51
2019-05-11T12:27:28.830Z,49.97
2019-05-11T12:29:59.589Z,49.73
2019-05-11T12:32:33.662Z,50.23
2019-05-11T12:35:03.495Z,49.60
2019-05-11T12:37:33.057Z,49.26
2019-05-11T12:40:02.748Z,49.88
2019-05-11T12:42:32.216Z,50.48
2019-05-11T12:45:01.729Z,51.22
2019-05-11T12:47:31.290Z,48.38
2019-05-11T12:50:00.820Z,49.72
2019-05-11T12:52:30.345Z,48.60
2019-05-11T12:54:59.891Z,48.13
2019-05-11T12:57:29.372Z,48.67
2019-05-11T12:59:58.876Z,48.83
2019-05-11T13:02:28.447Z,48.76
2019-05-11T13:04:58.541Z,46.85
2019-05-11T13:07:28.526Z,47.95
2019-05-11T13:09:58.172Z,47.62
2019-05-11T13:12:27.996Z,48.62
2019-05-11T13:14:58.099Z,48.23
2019-05-11T13:17:37.406Z,46.51
2019-05-11T13:19:58.976Z,47.70
2019-05-11T13:22:28.996Z,46.90
2019-05-11T13:24:58.950Z,47.13
2019-05-11T13:27:28.542Z,48.46
2019-05-11T13:29:59.153Z,48.32
2019-05-11T13:32:28.934Z,48.06
2019-05-11T13:34:58.520Z,49.92
2019-05-11T13:37:28.384Z,48.42
2019-05-11T13:39:58.086Z,51.34
2019-05-11T13:42:27.800Z,50.44
2019-05-11T13:44:58.377Z,50.13
2019-05-11T13:47:28.349Z,50.88
2019-05-11T13:49:58.513Z,48.56
2019-05-11T13:52:28.681Z,48.85
2019-05-11T13:54:58.615Z,49.12
2019-05-11T13:57:28.590Z,48.52
2019-05-11T13:59:58.163Z,48.69
2019-05-11T14:02:28.577Z,48.30
2019-05-11T14:04:58.530Z,49.72
2019-05-11T14:07:28.163Z,49.37
2019-05-11T14:09:58.881Z,50.30
2019-05-11T14:12:28.691Z,47.43
2019-05-11T14:14:58.329Z,48.30
2019-05-11T14:17:31.340Z,47.34
2019-05-11T14:19:59.016Z,49.83
2019-05-11T14:22:28.606Z,46.24
2019-05-11T14:24:58.732Z,46.95
2019-05-11T14:27:28.454Z,46.92
2019-05-11T14:29:58.624Z,46.77
2019-05-11T14:32:28.613Z,45.99
2019-05-11T14:34:58.284Z,47.31
2019-05-11T14:37:28.539Z,49.45
2019-05-11T14:39:58.497Z,49.61
2019-05-11T14:42:28.641Z,49.57
2019-05-11T14:44:59.104Z,48.27
2019-05-11T14:47:28.715Z,47.92
2019-05-11T14:49:58.412Z,47.86
2019-05-11T14:52:28.197Z,45.55
2019-05-11T14:54:58.474Z,46.46
2019-05-11T14:57:28.209Z,47.89
2019-05-11T14:59:58.692Z,47.27
2019-05-11T15:02:49.320Z,45.79
2019-05-11T15:05:20.019Z,45.80
2019-05-11T15:07:52.331Z,46.05
2019-05-11T15:10:22.273Z,45.45
2019-05-11T15:12:51.773Z,48.13
2019-05-11T15:15:21.498Z,46.97
2019-05-11T15:17:51.012Z,45.56
2019-05-11T15:20:20.871Z,45.81
2019-05-11T15:22:50.368Z,44.98
2019-05-11T15:25:20.284Z,46.55
2019-05-11T15:27:50.040Z,45.78
2019-05-11T15:30:21.026Z,46.75
2019-05-11T15:32:50.533Z,45.14
2019-05-11T15:35:20.107Z,43.83
2019-05-11T15:37:49.732Z,44.27
2019-05-11T15:40:21.386Z,43.01
2019-05-11T15:42:50.947Z,44.95
2019-05-11T15:45:20.888Z,43.89
2019-05-11T15:47:50.370Z,43.69
2019-05-11T15:50:20.961Z,44.28
2019-05-11T15:52:50.474Z,44.32
2019-05-11T15:55:21.366Z,44.02
2019-05-11T15:57:51.000Z,44.29
2019-05-11T16:00:22.437Z,44.59
2019-05-11T16:02:51.954Z,43.90
2019-05-11T16:05:21.554Z,44.23
2019-05-11T16:07:51.023Z,44.93
2019-05-11T16:10:20.965Z,45.04
2019-05-11T16:12:50.448Z,44.98
2019-05-11T16:15:20.358Z,44.49
2019-05-11T16:17:50.474Z,44.40
2019-05-11T16:20:20.352Z,45.05
2019-05-11T16:22:49.828Z,46.38
2019-05-11T16:25:20.154Z,46.00
2019-05-11T16:27:49.940Z,44.02
2019-05-11T16:30:21.456Z,42.78
2019-05-11T16:32:51.352Z,43.87
2019-05-11T16:35:21.015Z,43.57
2019-05-11T16:37:50.490Z,43.96
2019-05-11T16:40:21.053Z,41.78
2019-05-11T16:42:50.914Z,42.97
2019-05-11T16:45:23.501Z,43.72
2019-05-11T16:47:51.775Z,43.10
2019-05-11T16:50:21.285Z,41.96
2019-05-11T16:52:50.774Z,41.45
2019-05-11T16:55:20.269Z,41.01
2019-05-11T16:57:49.837Z,40.10
2019-05-11T17:00:19.747Z,41.92
2019-05-11T17:02:49.479Z,40.58
2019-05-11T17:05:26.422Z,40.64
2019-05-11T17:07:50.276Z,40.94
2019-05-11T17:10:20.006Z,40.54
2019-05-11T17:12:49.474Z,40.39
2019-05-11T17:15:19.391Z,40.00
2019-05-11T17:17:49.489Z,38.41
2019-05-11T17:20:19.465Z,38.22
2019-05-11T17:22:49.636Z,37.79
2019-05-11T17:25:19.789Z,37.81
2019-05-11T17:27:49.552Z,37.85
2019-05-11T17:30:20.609Z,37.64
2019-05-11T17:32:50.258Z,38.31
2019-05-11T17:35:19.884Z,39.41
2019-05-11T17:37:49.460Z,39.94
2019-05-11T17:40:23.385Z,40.72
2019-05-11T17:42:53.546Z,41.58
2019-05-11T17:45:22.145Z,41.89
2019-05-11T17:47:51.685Z,41.83
2019-05-11T17:50:21.296Z,42.23
2019-05-11T17:52:50.927Z,41.60
2019-05-11T17:55:20.387Z,42.05
2019-05-11T17:57:53.781Z,40.46
2019-05-11T18:00:21.979Z,39.44
2019-05-11T18:02:51.474Z,39.63
2019-05-11T18:05:20.947Z,38.42
2019-05-11T18:07:50.451Z,37.19
2019-05-11T18:10:20.250Z,37.64
2019-05-11T18:12:49.757Z,37.41
2019-05-11T18:15:19.473Z,37.63
2019-05-11T18:17:49.196Z,37.46
2019-05-11T18:20:21.649Z,38.26
2019-05-11T18:22:50.648Z,38.15
2019-05-11T18:25:20.119Z,38.24
2019-05-11T18:27:49.755Z,38.73
2019-05-11T18:30:19.746Z,39.74
2019-05-11T18:32:49.422Z,39.21
2019-05-11T18:35:19.598Z,39.88
2019-05-11T18:37:49.456Z,40.48
2019-05-11T18:40:19.198Z,40.51
2019-05-11T18:42:49.185Z,42.06
2019-05-11T18:45:19.298Z,43.36
2019-05-11T18:47:49.516Z,43.25
2019-05-11T18:50:29.871Z,43.80
2019-05-11T18:52:50.425Z,45.15
2019-05-11T18:55:19.962Z,45.63
2019-05-11T18:57:49.677Z,45.98
2019-05-11T19:00:19.901Z,46.48
2019-05-11T19:02:49.873Z,47.52
2019-05-11T19:05:19.936Z,47.48
2019-05-11T19:07:49.523Z,47.87
2019-05-11T19:10:19.192Z,49.25
2019-05-11T19:12:49.069Z,49.44
2019-05-11T19:15:19.342Z,48.67
2019-05-11T19:17:49.478Z,51.04
2019-05-11T19:20:20.993Z,50.82
2019-05-11T19:23:09.806Z,51.94
2019-05-11T19:25:39.265Z,51.86
2019-05-11T19:28:08.773Z,52.03
2019-05-11T19:30:38.468Z,51.58
2019-05-11T19:33:11.098Z,51.58
2019-05-11T19:35:39.357Z,52.25
2019-05-11T19:38:08.890Z,52.01
2019-05-11T19:40:38.760Z,50.92
2019-05-11T19:43:08.481Z,49.30
2019-05-11T19:45:38.562Z,51.55
2019-05-11T19:48:08.556Z,49.90
2019-05-11T19:50:40.979Z,50.46
2019-05-11T19:53:09.375Z,50.50
2019-05-11T19:55:38.785Z,50.01
2019-05-11T19:58:08.263Z,48.75
2019-05-11T20:00:38.090Z,49.26
2019-05-11T20:03:09.097Z,49.21
2019-05-11T20:05:39.045Z,48.43
2019-05-11T20:08:08.546Z,48.57
2019-05-11T20:10:38.432Z,49.36
2019-05-11T20:13:08.225Z,49.35
2019-05-11T20:15:38.256Z,49.51
2019-05-11T20:18:08.139Z,49.78
2019-05-11T20:20:37.842Z,49.76
2019-05-11T20:23:07.907Z,49.64
2019-05-11T20:25:38.100Z,50.41
2019-05-11T20:28:08.504Z,50.08
2019-05-11T20:30:38.139Z,50.35
2019-05-11T20:33:08.776Z,51.06
2019-05-11T20:35:38.451Z,51.87
2019-05-11T20:38:08.679Z,51.26
2019-05-11T20:40:38.287Z,51.19
2019-05-11T20:43:08.057Z,51.35
2019-05-11T20:45:37.904Z,51.46
2019-05-11T20:48:08.036Z,51.92
2019-05-11T20:50:37.998Z,50.92
2019-05-11T20:53:08.588Z,50.51
2019-05-11T20:55:38.256Z,50.56
2019-05-11T20:58:08.650Z,50.88
2019-05-11T21:00:38.476Z,51.22
2019-05-11T21:03:08.164Z,50.98
2019-05-11T21:05:37.703Z,51.09
2019-05-11T21:08:08.497Z,50.55
2019-05-11T21:10:38.746Z,50.96
2019-05-11T21:13:08.734Z,51.90
2019-05-11T21:15:38.613Z,51.74
2019-05-11T21:18:08.404Z,51.32
2019-05-11T21:20:38.227Z,51.48
2019-05-11T21:23:08.364Z,52.12
2019-05-11T21:25:37.958Z,52.49
2019-05-11T21:28:08.518Z,51.77
2019-05-11T21:30:39.983Z,52.16
2019-05-11T21:33:09.477Z,52.12
2019-05-11T21:35:38.976Z,52.08
2019-05-11T21:38:08.462Z,52.79
2019-05-11T21:40:38.222Z,51.58
2019-05-11T21:43:08.765Z,51.28
2019-05-11T21:45:40.761Z,51.77
2019-05-11T21:48:09.821Z,52.56
2019-05-11T21:50:39.870Z,51.71
2019-05-11T21:53:10.604Z,51.41
2019-05-11T21:55:40.235Z,51.60
2019-05-11T22:00:32.670Z,51.80
2019-05-11T22:03:02.154Z,52.55
2019-05-11T22:05:31.639Z,51.75
2019-05-11T22:08:01.182Z,52.04
2019-05-11T22:10:30.767Z,51.70
2019-05-11T22:13:00.363Z,51.65
2019-05-11T22:15:30.929Z,51.88
2019-05-11T22:18:00.778Z,51.81
2019-05-11T22:20:30.279Z,52.00
2019-05-11T22:22:59.875Z,52.32
2019-05-11T22:25:29.339Z,52.50
2019-05-11T22:27:58.819Z,53.07
2019-05-11T22:30:28.457Z,53.23
2019-05-11T22:32:58.460Z,52.66
2019-05-11T22:35:28.710Z,52.85
2019-05-11T22:37:58.440Z,53.50
2019-05-11T22:40:28.347Z,53.35
2019-05-11T22:43:01.153Z,53.35
2019-05-11T22:45:29.255Z,53.35
2019-05-11T22:47:58.791Z,53.34
2019-05-11T22:50:29.015Z,53.18
2019-05-11T22:52:58.829Z,53.59
2019-05-11T22:55:28.325Z,53.80
2019-05-11T22:57:58.085Z,53.84
2019-05-11T23:00:59.712Z,53.88
2019-05-11T23:03:28.882Z,53.98
2019-05-11T23:05:58.394Z,54.02
2019-05-11T23:08:27.877Z,54.37
2019-05-11T23:10:57.437Z,54.41
2019-05-11T23:13:27.932Z,54.61
2019-05-11T23:15:58.411Z,54.72
2019-05-11T23:18:28.645Z,54.68
2019-05-11T23:20:58.471Z,55.69
2019-05-11T23:23:28.424Z,55.57
2019-05-11T23:25:58.106Z,55.61
2019-05-11T23:28:28.806Z,55.46
2019-05-11T23:30:58.479Z,55.35
2019-05-11T23:33:28.126Z,55.51
2019-05-11T23:35:58.764Z,55.62
2019-05-11T23:38:28.366Z,55.71
2019-05-11T23:40:58.692Z,56.32
2019-05-11T23:43:30.064Z,56.12
2019-05-11T23:45:59.665Z,57.00
2019-05-11T23:48:29.178Z,56.88
2019-05-11T23:50:58.658Z,56.99
2019-05-11T23:53:28.383Z,57.56
2019-05-11T23:55:58.059Z,57.28
2019-05-11T23:58:28.319Z,57.08
